createdAt,value
2018-07-02T00:00:14.610Z,1.50
2018-07-02T00:02:43.107Z,1.60
2018-07-02T00:05:12.000Z,1.50
2018-07-02T00:07:40.948Z,1.43
2018-07-02T00:10:10.412Z,1.70
2018-07-02T00:12:39.376Z,1.60
2018-07-02T00:15:08.444Z,1.30
2018-07-02T00:17:37.455Z,1.50
2018-07-02T00:20:07.155Z,1.57
2018-07-02T00:22:36.092Z,1.60
2018-07-02T00:25:05.137Z,1.43
2018-07-02T00:27:34.100Z,1.50
2018-07-02T00:30:03.081Z,1.97
2018-07-02T00:32:32.009Z,1.50
2018-07-02T00:35:00.924Z,1.50
2018-07-02T00:37:29.932Z,1.70
2018-07-02T00:39:58.952Z,1.80
2018-07-02T00:42:27.424Z,2.00
2018-07-02T00:44:56.268Z,2.17
2018-07-02T00:47:25.296Z,1.93
2018-07-02T00:49:54.231Z,2.00
2018-07-02T00:52:23.180Z,1.70
2018-07-02T00:54:52.142Z,1.67
2018-07-02T00:57:21.040Z,1.57
2018-07-02T00:59:49.467Z,1.60
2018-07-02T01:02:18.490Z,1.40
2018-07-02T01:04:47.320Z,1.87
2018-07-02T01:07:16.499Z,1.47
2018-07-02T01:09:45.437Z,1.47
2018-07-02T01:12:14.347Z,1.57
2018-07-02T01:14:43.283Z,1.20
2018-07-02T01:17:12.175Z,1.67
2018-07-02T01:19:41.166Z,1.97
2018-07-02T01:22:10.011Z,1.83
2018-07-02T01:24:39.008Z,1.83
2018-07-02T01:27:07.916Z,1.87
2018-07-02T01:29:36.825Z,1.70
2018-07-02T01:32:05.751Z,1.80
2018-07-02T01:34:34.752Z,1.60
2018-07-02T01:37:03.604Z,1.47
2018-07-02T01:39:32.521Z,1.67
2018-07-02T01:42:01.380Z,1.70
2018-07-02T01:44:30.348Z,1.63
2018-07-02T01:46:59.227Z,1.60
2018-07-02T01:49:28.176Z,1.70
2018-07-02T01:51:57.112Z,1.73
2018-07-02T01:54:26.795Z,1.60
2018-07-02T01:56:55.720Z,1.73
2018-07-02T01:59:24.604Z,2.00
2018-07-02T02:01:53.491Z,2.13
2018-07-02T02:04:22.369Z,1.87
2018-07-02T02:06:53.436Z,1.63
2018-07-02T02:09:22.294Z,1.60
2018-07-02T02:11:51.276Z,1.60
2018-07-02T02:14:20.164Z,1.70
2018-07-02T02:16:49.052Z,1.60
2018-07-02T02:19:18.055Z,1.40
2018-07-02T02:21:46.940Z,1.50
2018-07-02T02:24:15.792Z,1.70
2018-07-02T02:26:44.745Z,1.30
2018-07-02T02:29:13.631Z,1.80
2018-07-02T02:31:42.557Z,1.40
2018-07-02T02:34:11.368Z,1.80
2018-07-02T02:36:40.352Z,1.90
2018-07-02T02:39:10.268Z,1.77
2018-07-02T02:41:38.767Z,1.80
2018-07-02T02:44:08.299Z,1.80
2018-07-02T02:46:37.549Z,1.70
2018-07-02T02:49:06.536Z,1.63
2018-07-02T02:51:35.051Z,1.57
2018-07-02T02:54:03.936Z,3.30
2018-07-02T02:56:32.916Z,7.33
2018-07-02T02:59:01.752Z,9.83
2018-07-02T03:01:30.659Z,4.90
2018-07-02T03:03:59.542Z,3.30
2018-07-02T03:06:28.781Z,3.07
2018-07-02T03:08:57.289Z,2.80
2018-07-02T03:11:26.220Z,2.07
2018-07-02T03:13:55.260Z,2.40
2018-07-02T03:16:24.176Z,4.00
2018-07-02T03:18:53.121Z,1.90
2018-07-02T03:21:21.988Z,2.07
2018-07-02T03:23:50.940Z,2.10
2018-07-02T03:26:19.806Z,1.93
2018-07-02T03:28:48.736Z,2.40
2018-07-02T03:31:17.629Z,2.57
2018-07-02T03:33:46.516Z,1.63
2018-07-02T03:36:14.989Z,1.80
2018-07-02T03:38:43.904Z,1.60
2018-07-02T03:41:12.801Z,2.10
2018-07-02T03:43:41.733Z,2.00
2018-07-02T03:46:10.677Z,2.10
2018-07-02T03:48:39.544Z,2.00
2018-07-02T03:51:08.468Z,2.40
2018-07-02T03:53:37.286Z,1.70
2018-07-02T03:56:06.358Z,1.80
2018-07-02T03:58:35.289Z,1.63
2018-07-02T04:01:04.343Z,1.70
2018-07-02T04:03:33.229Z,1.70
2018-07-02T04:06:02.172Z,2.20
2018-07-02T04:08:31.063Z,1.93
2018-07-02T04:11:00.805Z,1.80
2018-07-02T04:13:29.636Z,2.40
2018-07-02T04:15:58.154Z,1.90
2018-07-02T04:18:27.002Z,1.90
2018-07-02T04:20:55.924Z,2.07
2018-07-02T04:23:24.876Z,1.90
2018-07-02T04:25:53.880Z,2.10
2018-07-02T04:28:22.663Z,1.93
2018-07-02T04:30:51.625Z,1.90
2018-07-02T04:33:20.532Z,1.90
2018-07-02T04:35:49.460Z,1.63
2018-07-02T04:38:18.418Z,2.23
2018-07-02T04:40:47.316Z,2.07
2018-07-02T04:43:16.236Z,1.80
2018-07-02T04:45:45.178Z,2.00
2018-07-02T04:48:14.125Z,2.10
2018-07-02T04:50:43.021Z,1.70
2018-07-02T04:53:11.925Z,2.00
2018-07-02T04:55:40.816Z,1.80
2018-07-02T04:58:09.768Z,2.57
2018-07-02T05:00:38.255Z,3.03
2018-07-02T05:03:07.200Z,3.13
2018-07-02T05:05:36.060Z,2.13
2018-07-02T05:08:04.564Z,2.63
2018-07-02T05:10:33.384Z,2.17
2018-07-02T05:13:02.340Z,2.23
2018-07-02T05:15:31.316Z,2.10
2018-07-02T05:18:00.256Z,2.00
2018-07-02T05:20:29.120Z,2.23
2018-07-02T05:22:58.132Z,2.20
2018-07-02T05:25:26.956Z,2.43
2018-07-02T05:27:55.880Z,2.53
2018-07-02T05:30:24.760Z,2.17
2018-07-02T05:32:53.659Z,2.40
2018-07-02T05:35:22.513Z,2.37
2018-07-02T05:37:51.376Z,2.60
2018-07-02T05:40:20.224Z,2.43
2018-07-02T05:42:49.131Z,2.33
2018-07-02T05:45:18.044Z,1.77
2018-07-02T05:47:46.972Z,1.70
2018-07-02T05:50:15.809Z,1.57
2018-07-02T05:52:44.724Z,2.03
2018-07-02T05:55:13.619Z,1.40
2018-07-02T05:57:42.548Z,1.87
2018-07-02T06:00:11.948Z,2.13
2018-07-02T06:02:40.929Z,2.07
2018-07-02T06:05:09.764Z,2.07
2018-07-02T06:07:38.673Z,1.50
2018-07-02T06:10:07.500Z,1.80
2018-07-02T06:12:36.435Z,1.70
2018-07-02T06:15:05.308Z,1.90
2018-07-02T06:17:34.188Z,2.50
2018-07-02T06:20:03.106Z,1.70
2018-07-02T06:22:32.000Z,2.00
2018-07-02T06:25:00.833Z,2.00
2018-07-02T06:27:29.741Z,1.90
2018-07-02T06:29:58.623Z,1.90
2018-07-02T06:32:27.512Z,2.00
2018-07-02T06:34:56.384Z,1.70
2018-07-02T06:37:25.292Z,1.73
2018-07-02T06:39:54.277Z,1.70
2018-07-02T06:42:23.191Z,1.97
2018-07-02T06:44:52.034Z,1.40
2018-07-02T06:47:20.952Z,1.70
2018-07-02T06:49:50.796Z,1.77
2018-07-02T06:52:19.700Z,1.60
2018-07-02T06:54:48.588Z,1.37
2018-07-02T06:57:17.496Z,1.70
2018-07-02T06:59:47.245Z,1.33
2018-07-02T07:02:16.089Z,1.50
2018-07-02T07:04:45.000Z,1.87
2018-07-02T07:07:13.873Z,1.47
2018-07-02T07:09:42.728Z,1.80
2018-07-02T07:12:11.271Z,1.40
2018-07-02T07:14:40.190Z,1.37
2018-07-02T07:17:09.137Z,1.50
2018-07-02T07:19:38.059Z,1.53
2018-07-02T07:22:06.959Z,1.03
2018-07-02T07:24:35.877Z,1.73
2018-07-02T07:27:04.764Z,1.60
2018-07-02T07:29:33.684Z,1.40
2018-07-02T07:32:02.557Z,1.20
2018-07-02T07:34:31.472Z,1.50
2018-07-02T07:37:00.328Z,2.00
2018-07-02T07:39:29.823Z,1.40
2018-07-02T07:41:58.856Z,1.63
2018-07-02T07:44:27.824Z,1.60
2018-07-02T07:46:56.725Z,1.50
2018-07-02T07:49:25.629Z,1.40
2018-07-02T07:51:54.851Z,1.90
2018-07-02T07:54:23.736Z,1.40
2018-07-02T07:56:52.770Z,2.00
2018-07-02T07:59:21.664Z,1.63
2018-07-02T08:01:50.541Z,1.90
2018-07-02T08:04:19.408Z,1.63
2018-07-02T08:06:48.279Z,1.53
2018-07-02T08:09:17.112Z,1.60
2018-07-02T08:11:46.037Z,1.60
2018-07-02T08:14:14.904Z,1.93
2018-07-02T08:16:43.830Z,1.63
2018-07-02T08:19:12.784Z,1.50
2018-07-02T08:21:41.717Z,1.70
2018-07-02T08:24:10.596Z,1.43
2018-07-02T08:26:39.478Z,2.40
2018-07-02T08:29:14.716Z,1.73
2018-07-02T08:31:44.737Z,2.00
2018-07-02T08:34:14.568Z,1.80
2018-07-02T08:36:44.638Z,1.50
2018-07-02T08:39:13.932Z,1.73
2018-07-02T08:41:43.680Z,1.50
2018-07-02T08:44:12.721Z,1.60
2018-07-02T08:46:43.071Z,2.00
2018-07-02T08:49:11.515Z,1.70
2018-07-02T08:51:40.404Z,2.10
2018-07-02T08:54:10.295Z,1.93
2018-07-02T08:56:45.363Z,1.90
2018-07-02T08:59:16.764Z,1.60
2018-07-02T09:01:45.708Z,1.90
2018-07-02T09:04:16.743Z,1.93
2018-07-02T09:06:45.756Z,1.67
2018-07-02T09:09:14.717Z,1.60
2018-07-02T09:11:43.633Z,2.00
2018-07-02T09:14:12.432Z,2.23
2018-07-02T09:16:41.332Z,1.70
2018-07-02T09:19:10.369Z,1.70
2018-07-02T09:21:39.384Z,1.70
2018-07-02T09:24:08.328Z,2.10
2018-07-02T09:26:37.276Z,1.90
2018-07-02T09:29:06.128Z,1.93
2018-07-02T09:31:35.069Z,1.63
2018-07-02T09:34:03.999Z,1.80
2018-07-02T09:36:32.417Z,1.40
2018-07-02T09:39:01.451Z,1.87
2018-07-02T09:41:30.408Z,1.80
2018-07-02T09:44:00.284Z,2.07
2018-07-02T09:46:29.133Z,1.80
2018-07-02T09:48:58.020Z,1.60
2018-07-02T09:51:27.032Z,2.33
2018-07-02T09:53:55.902Z,1.90
2018-07-02T09:56:24.794Z,2.53
2018-07-02T09:58:53.709Z,1.77
2018-07-02T10:01:22.718Z,1.90
2018-07-02T10:03:52.600Z,1.60
2018-07-02T10:06:21.586Z,1.73
2018-07-02T10:08:50.431Z,1.87
2018-07-02T10:11:19.385Z,1.80
2018-07-02T10:13:49.600Z,1.90
2018-07-02T10:16:18.589Z,1.97
2018-07-02T10:18:49.892Z,2.00
2018-07-02T10:21:18.840Z,2.17
2018-07-02T10:23:47.800Z,1.90
2018-07-02T10:26:16.765Z,1.67
2018-07-02T10:28:45.629Z,2.20
2018-07-02T10:31:14.581Z,2.20
2018-07-02T10:33:43.365Z,1.90
2018-07-02T10:36:12.300Z,1.80
2018-07-02T10:38:40.739Z,2.00
2018-07-02T10:41:09.704Z,1.50
2018-07-02T10:43:38.556Z,1.90
2018-07-02T10:46:07.135Z,2.00
2018-07-02T10:48:36.050Z,2.10
2018-07-02T10:51:05.033Z,2.00
2018-07-02T10:53:33.947Z,1.90
2018-07-02T10:56:02.954Z,1.80
2018-07-02T10:58:31.838Z,1.80
2018-07-02T11:01:00.749Z,2.00
2018-07-02T11:03:29.577Z,1.93
2018-07-02T11:05:58.508Z,2.03
2018-07-02T11:08:27.414Z,1.90
2018-07-02T11:10:56.216Z,2.00
2018-07-02T11:13:25.136Z,1.90
2018-07-02T11:15:53.640Z,2.00
2018-07-02T11:18:22.628Z,1.90
2018-07-02T11:20:51.075Z,2.10
2018-07-02T11:23:20.016Z,2.20
2018-07-02T11:25:48.865Z,2.00
2018-07-02T11:28:17.415Z,2.13
2018-07-02T11:30:46.282Z,1.90
2018-07-02T11:33:15.272Z,2.00
2018-07-02T11:35:44.100Z,1.83
2018-07-02T11:38:13.016Z,2.10
2018-07-02T11:40:41.423Z,2.00
2018-07-02T11:43:10.336Z,1.80
2018-07-02T11:45:39.190Z,1.60
2018-07-02T11:48:08.114Z,2.10
2018-07-02T11:50:36.989Z,2.20
2018-07-02T11:53:05.949Z,2.25
2018-07-02T11:55:34.916Z,1.95
2018-07-02T11:58:03.796Z,2.08
2018-07-02T12:00:33.524Z,2.30
2018-07-02T12:03:03.386Z,2.10
2018-07-02T12:05:32.289Z,1.62
2018-07-02T12:08:01.195Z,2.00
2018-07-02T12:10:30.076Z,1.80
2018-07-02T12:12:58.928Z,2.30
2018-07-02T12:15:27.923Z,2.60
2018-07-02T12:17:56.708Z,1.82
2018-07-02T12:20:25.144Z,2.50
2018-07-02T12:22:55.254Z,2.10
2018-07-02T12:25:24.048Z,2.00
2018-07-02T12:27:53.012Z,2.00
2018-07-02T12:30:21.889Z,1.85
2018-07-02T12:32:52.731Z,2.10
2018-07-02T12:35:21.585Z,2.12
2018-07-02T12:37:50.524Z,1.92
2018-07-02T12:40:19.344Z,2.00
2018-07-02T12:42:48.202Z,1.90
2018-07-02T12:45:17.141Z,2.10
2018-07-02T12:47:46.010Z,2.33
2018-07-02T12:50:14.972Z,2.02
2018-07-02T12:52:43.816Z,1.92
2018-07-02T12:55:12.748Z,2.30
2018-07-02T12:57:41.554Z,2.10
2018-07-02T13:00:10.526Z,2.17
2018-07-02T13:02:39.338Z,2.12
2018-07-02T13:05:08.282Z,2.47
2018-07-02T13:07:37.184Z,2.25
2018-07-02T13:10:05.825Z,2.22
2018-07-02T13:12:34.940Z,2.60
2018-07-02T13:15:03.845Z,2.75
2018-07-02T13:17:32.732Z,2.37
2018-07-02T13:20:01.640Z,2.40
2018-07-02T13:22:30.512Z,2.27
2018-07-02T13:24:59.413Z,2.37
2018-07-02T13:27:28.377Z,2.40
2018-07-02T13:29:57.259Z,1.98
2018-07-02T13:32:26.136Z,2.20
2018-07-02T13:34:55.012Z,2.22
2018-07-02T13:37:23.976Z,2.40
2018-07-02T13:39:52.791Z,2.15
2018-07-02T13:42:21.672Z,2.70
2018-07-02T13:44:50.663Z,2.58
2018-07-02T13:47:19.586Z,2.30
2018-07-02T13:49:48.480Z,2.58
2018-07-02T13:52:17.388Z,2.00
2018-07-02T13:54:46.284Z,2.20
2018-07-02T13:57:15.208Z,2.77
2018-07-02T13:59:44.020Z,2.60
2018-07-02T14:02:12.926Z,2.22
2018-07-02T14:04:41.851Z,2.30
2018-07-02T14:07:10.708Z,2.30
2018-07-02T14:09:39.634Z,2.20
2018-07-02T14:12:08.665Z,2.40
2018-07-02T14:14:37.818Z,2.00
2018-07-02T14:17:06.796Z,1.98
2018-07-02T14:19:36.798Z,3.20
2018-07-02T14:22:05.865Z,2.65
2018-07-02T14:24:34.807Z,2.25
2018-07-02T14:27:03.705Z,2.30
2018-07-02T14:29:32.613Z,2.85
2018-07-02T14:32:01.504Z,2.83
2018-07-02T14:34:30.449Z,2.60
2018-07-02T14:36:59.467Z,2.20
2018-07-02T14:39:28.404Z,2.30
2018-07-02T14:41:57.423Z,2.35
2018-07-02T14:44:26.337Z,2.40
2018-07-02T14:46:55.212Z,2.30
2018-07-02T14:49:24.204Z,2.17
2018-07-02T14:51:54.246Z,2.27
2018-07-02T14:54:23.121Z,2.50
2018-07-02T14:56:51.998Z,2.42
2018-07-02T14:59:20.894Z,2.40
2018-07-02T15:01:49.865Z,2.67
2018-07-02T15:04:19.041Z,2.42
2018-07-02T15:06:47.963Z,2.20
2018-07-02T15:09:17.809Z,2.22
2018-07-02T15:11:46.753Z,2.15
2018-07-02T15:14:15.732Z,2.60
2018-07-02T15:16:44.569Z,2.75
2018-07-02T15:19:14.440Z,2.52
2018-07-02T15:21:43.466Z,2.27
2018-07-02T15:24:12.296Z,2.70
2018-07-02T15:26:41.229Z,2.17
2018-07-02T15:29:11.849Z,2.70
2018-07-02T15:31:40.732Z,2.50
2018-07-02T15:34:09.721Z,2.50
2018-07-02T15:36:38.736Z,2.45
2018-07-02T15:39:10.513Z,2.50
2018-07-02T15:41:39.714Z,2.60
2018-07-02T15:44:08.672Z,2.40
2018-07-02T15:46:37.605Z,2.58
2018-07-02T15:49:06.496Z,2.33
2018-07-02T15:51:35.390Z,2.50
2018-07-02T15:54:04.248Z,2.47
2018-07-02T15:56:33.137Z,2.55
2018-07-02T15:59:02.099Z,2.65
2018-07-02T16:01:30.499Z,2.70
2018-07-02T16:03:59.464Z,2.30
2018-07-02T16:06:28.480Z,2.75
2018-07-02T16:08:57.340Z,2.65
2018-07-02T16:11:26.217Z,2.42
2018-07-02T16:13:55.187Z,2.42
2018-07-02T16:16:24.109Z,2.27
2018-07-02T16:18:52.983Z,2.40
2018-07-02T16:21:22.444Z,2.70
2018-07-02T16:23:51.346Z,2.72
2018-07-02T16:26:20.280Z,2.80
2018-07-02T16:28:49.235Z,2.40
2018-07-02T16:31:18.296Z,2.50
2018-07-02T16:33:47.180Z,2.42
2018-07-02T16:36:15.776Z,2.60
2018-07-02T16:38:44.677Z,3.05
2018-07-02T16:41:13.559Z,2.60
2018-07-02T16:43:42.468Z,2.80
2018-07-02T16:46:11.680Z,2.52
2018-07-02T16:48:40.553Z,2.55
2018-07-02T16:51:09.468Z,2.35
2018-07-02T16:53:38.455Z,2.80
2018-07-02T16:56:09.281Z,2.98
2018-07-02T16:58:38.173Z,2.80
2018-07-02T17:01:07.272Z,3.05
2018-07-02T17:03:36.188Z,2.50
2018-07-02T17:06:05.252Z,2.72
2018-07-02T17:08:34.142Z,2.90
2018-07-02T17:11:03.045Z,2.80
2018-07-02T17:13:32.498Z,2.83
2018-07-02T17:16:00.997Z,2.60
2018-07-02T17:18:29.851Z,2.40
2018-07-02T17:20:58.769Z,3.40
2018-07-02T17:23:27.216Z,2.98
2018-07-02T17:25:56.128Z,2.58
2018-07-02T17:28:25.034Z,2.60
2018-07-02T17:30:53.952Z,2.62
2018-07-02T17:33:23.016Z,4.10
2018-07-02T17:35:51.492Z,2.77
2018-07-02T17:38:20.027Z,2.60
2018-07-02T17:40:48.928Z,2.50
2018-07-02T17:43:17.912Z,2.90
2018-07-02T17:45:46.781Z,2.90
2018-07-02T17:48:15.752Z,2.70
2018-07-02T17:50:44.621Z,2.87
2018-07-02T17:53:14.116Z,2.72
2018-07-02T17:55:43.019Z,2.60
2018-07-02T17:58:12.138Z,3.00
2018-07-02T18:00:41.850Z,3.00
2018-07-02T18:03:11.369Z,2.90
2018-07-02T18:05:40.369Z,2.70
2018-07-02T18:08:09.480Z,2.77
2018-07-02T18:10:38.392Z,2.90
2018-07-02T18:13:07.293Z,2.97
2018-07-02T18:15:36.232Z,3.00
2018-07-02T18:18:05.340Z,2.90
2018-07-02T18:20:34.580Z,2.90
2018-07-02T18:23:03.505Z,3.00
2018-07-02T18:25:32.351Z,2.87
2018-07-02T18:28:02.033Z,2.70
2018-07-02T18:30:30.917Z,2.90
2018-07-02T18:32:59.933Z,3.23
2018-07-02T18:35:28.860Z,3.30
2018-07-02T18:37:57.968Z,2.87
2018-07-02T18:40:27.645Z,2.90
2018-07-02T18:42:57.713Z,2.97
2018-07-02T18:45:26.212Z,2.83
2018-07-02T18:47:55.288Z,2.77
2018-07-02T18:50:24.252Z,2.70
2018-07-02T18:52:52.743Z,3.27
2018-07-02T18:55:21.316Z,3.70
2018-07-02T18:57:49.912Z,2.97
2018-07-02T19:00:18.863Z,4.10
2018-07-02T19:02:47.764Z,4.00
2018-07-02T19:05:16.701Z,3.83
2018-07-02T19:07:45.767Z,3.30
2018-07-02T19:10:14.795Z,3.60
2018-07-02T19:12:43.727Z,3.57
2018-07-02T19:15:12.703Z,3.33
2018-07-02T19:17:41.687Z,3.40
2018-07-02T19:20:10.604Z,3.70
2018-07-02T19:22:39.561Z,3.10
2018-07-02T19:25:09.401Z,3.20
2018-07-02T19:27:38.340Z,3.10
2018-07-02T19:30:06.823Z,3.60
2018-07-02T19:32:35.793Z,3.93
2018-07-02T19:35:04.845Z,3.70
2018-07-02T19:37:34.120Z,3.60
2018-07-02T19:40:03.152Z,3.73
2018-07-02T19:42:32.240Z,3.87
2018-07-02T19:45:01.185Z,3.63
2018-07-02T19:47:30.065Z,3.60
2018-07-02T19:49:58.667Z,4.00
2018-07-02T19:52:27.866Z,3.73
2018-07-02T19:54:56.863Z,3.70
2018-07-02T19:57:27.412Z,3.40
2018-07-02T19:59:56.404Z,3.10
2018-07-02T20:02:25.222Z,3.47
2018-07-02T20:04:54.512Z,3.70
2018-07-02T20:07:23.677Z,3.97
2018-07-02T20:09:53.376Z,4.00
2018-07-02T20:12:22.336Z,4.00
2018-07-02T20:14:51.176Z,3.60
2018-07-02T20:17:20.116Z,3.63
2018-07-02T20:19:50.104Z,3.40
2018-07-02T20:22:19.137Z,3.33
2018-07-02T20:24:48.136Z,5.27
2018-07-02T20:27:16.592Z,3.30
2018-07-02T20:29:45.671Z,3.13
2018-07-02T20:32:14.557Z,3.17
2018-07-02T20:34:43.644Z,3.87
2018-07-02T20:37:12.741Z,3.80
2018-07-02T20:39:41.620Z,4.30
2018-07-02T20:42:10.607Z,4.17
2018-07-02T20:44:39.524Z,4.00
2018-07-02T20:47:08.610Z,4.00
2018-07-02T20:49:37.569Z,4.53
2018-07-02T20:52:06.048Z,5.00
2018-07-02T20:54:34.976Z,3.90
2018-07-02T20:57:03.863Z,4.20
2018-07-02T20:59:32.878Z,3.80
2018-07-02T21:02:01.842Z,3.87
2018-07-02T21:04:30.792Z,4.07
2018-07-02T21:06:59.821Z,4.13
2018-07-02T21:09:28.904Z,3.57
2018-07-02T21:11:57.779Z,3.70
2018-07-02T21:14:26.378Z,3.67
2018-07-02T21:16:55.263Z,3.83
2018-07-02T21:19:24.176Z,3.13
2018-07-02T21:21:53.046Z,3.13
2018-07-02T21:24:21.900Z,3.60
2018-07-02T21:26:51.444Z,3.90
2018-07-02T21:29:20.433Z,4.10
2018-07-02T21:31:49.344Z,3.97
2018-07-02T21:34:18.346Z,3.60
2018-07-02T21:36:47.453Z,3.80
2018-07-02T21:39:16.281Z,3.73
2018-07-02T21:41:45.303Z,3.20
2018-07-02T21:44:14.846Z,3.43
2018-07-02T21:46:43.776Z,3.93
2018-07-02T21:49:12.208Z,3.60
2018-07-02T21:51:41.125Z,3.80
2018-07-02T21:54:10.097Z,3.80
2018-07-02T21:56:38.912Z,3.43
2018-07-02T21:59:07.834Z,3.80
2018-07-02T22:01:36.263Z,4.00
2018-07-02T22:04:05.249Z,3.80
2018-07-02T22:06:34.197Z,3.97
2018-07-02T22:09:04.219Z,4.40
2018-07-02T22:11:33.102Z,4.23
2018-07-02T22:14:01.512Z,3.83
2018-07-02T22:16:30.444Z,4.00
2018-07-02T22:18:59.297Z,4.63
2018-07-02T22:21:28.288Z,4.40
2018-07-02T22:23:57.164Z,3.80
2018-07-02T22:26:26.249Z,3.90
2018-07-02T22:28:55.181Z,4.10
2018-07-02T22:31:25.179Z,4.10
2018-07-02T22:33:54.108Z,3.80
2018-07-02T22:36:23.263Z,3.50
2018-07-02T22:38:52.305Z,3.47
2018-07-02T22:41:21.299Z,3.67
2018-07-02T22:43:50.321Z,3.70
2018-07-02T22:46:19.304Z,3.70
2018-07-02T22:48:48.227Z,3.67
2018-07-02T22:51:17.199Z,3.43
2018-07-02T22:53:45.611Z,4.33
2018-07-02T22:56:14.515Z,3.77
2018-07-02T22:58:44.319Z,3.60
2018-07-02T23:01:13.231Z,3.63
2018-07-02T23:03:42.431Z,3.40
2018-07-02T23:06:11.388Z,4.10
2018-07-02T23:08:40.196Z,3.70
2018-07-02T23:11:09.125Z,3.77
2018-07-02T23:13:37.999Z,3.70
2018-07-02T23:16:07.172Z,3.80
2018-07-02T23:18:36.200Z,3.73
2018-07-02T23:21:05.161Z,4.20
2018-07-02T23:23:34.044Z,3.70
2018-07-02T23:26:02.896Z,3.97
2018-07-02T23:28:31.886Z,4.13
2018-07-02T23:31:00.412Z,3.70
2018-07-02T23:33:29.228Z,3.60
2018-07-02T23:35:58.177Z,4.10
2018-07-02T23:38:27.058Z,3.60
2018-07-02T23:40:55.960Z,4.00
2018-07-02T23:43:24.821Z,3.97
2018-07-02T23:45:53.342Z,4.00
2018-07-02T23:48:22.187Z,4.00
2018-07-02T23:50:51.168Z,4.23
2018-07-02T23:53:20.920Z,4.33
2018-07-02T23:55:49.868Z,4.10
2018-07-02T23:58:18.800Z,4.17
